createdAt,value
2018-06-27T00:00:46.554Z,96165.00
2018-06-27T00:06:16.466Z,96163.00
2018-06-27T00:11:46.405Z,96165.00
2018-06-27T00:17:16.037Z,96164.00
2018-06-27T00:22:46.481Z,96159.00
2018-06-27T00:28:16.473Z,96148.00
2018-06-27T00:33:46.187Z,96148.00
2018-06-27T00:39:15.916Z,96155.00
2018-06-27T00:44:45.915Z,96145.00
2018-06-27T00:50:15.923Z,96143.00
2018-06-27T00:55:45.719Z,96134.00
2018-06-27T01:01:15.752Z,96146.00
2018-06-27T01:06:46.202Z,96139.00
2018-06-27T01:12:16.707Z,96140.00
2018-06-27T01:17:54.807Z,96132.00
2018-06-27T01:23:24.010Z,96137.00
2018-06-27T01:28:53.439Z,96132.00
2018-06-27T01:34:22.862Z,96122.00
2018-06-27T01:39:52.113Z,96122.00
2018-06-27T01:45:21.709Z,96128.00
2018-06-27T01:50:51.110Z,96121.00
2018-06-27T01:56:20.595Z,96122.00
2018-06-27T02:01:50.019Z,96125.00
2018-06-27T02:07:19.461Z,96123.00
2018-06-27T02:12:49.640Z,96140.00
2018-06-27T02:18:19.227Z,96127.00
2018-06-27T02:23:48.535Z,96129.00
2018-06-27T02:29:18.372Z,96119.00
2018-06-27T02:34:48.380Z,96115.00
2018-06-27T02:40:19.399Z,96122.00
2018-06-27T02:45:48.917Z,96115.00
2018-06-27T02:51:18.216Z,96109.00
2018-06-27T02:56:47.645Z,96109.00
2018-06-27T03:02:17.465Z,96112.00
2018-06-27T03:07:47.012Z,96109.00
2018-06-27T03:13:16.595Z,96110.00
2018-06-27T03:18:55.312Z,96121.00
2018-06-27T03:24:24.534Z,96114.00
2018-06-27T03:29:53.723Z,96107.00
2018-06-27T03:35:22.904Z,96107.00
2018-06-27T03:40:52.251Z,96107.00
2018-06-27T03:46:21.547Z,96110.00
2018-06-27T03:51:50.737Z,96105.00
2018-06-27T03:57:23.283Z,96115.00
2018-06-27T04:02:52.476Z,96126.00
2018-06-27T04:08:21.695Z,96129.00
2018-06-27T04:13:50.929Z,96128.00
2018-06-27T04:19:19.878Z,96130.00
2018-06-27T04:24:49.263Z,96130.00
2018-06-27T04:30:18.614Z,96139.00
2018-06-27T04:35:47.989Z,96128.00
2018-06-27T04:41:17.590Z,96128.00
2018-06-27T04:46:47.301Z,96130.00
2018-06-27T04:52:17.341Z,96134.00
2018-06-27T04:57:47.173Z,96129.00
2018-06-27T05:03:17.390Z,96127.00
2018-06-27T05:08:47.208Z,96126.00
2018-06-27T05:14:17.165Z,96133.00
2018-06-27T05:19:46.916Z,96127.00
2018-06-27T05:25:16.833Z,96139.00
2018-06-27T05:30:46.871Z,96146.00
2018-06-27T05:36:16.754Z,96145.00
2018-06-27T05:41:46.636Z,96150.00
2018-06-27T05:47:17.196Z,96162.00
2018-06-27T05:52:46.912Z,96163.00
2018-06-27T05:58:16.983Z,96164.00
2018-06-27T06:03:47.273Z,96169.00
2018-06-27T06:09:17.968Z,96177.00
2018-06-27T06:14:47.902Z,96174.00
2018-06-27T06:20:17.644Z,96179.00
2018-06-27T06:25:47.207Z,96176.00
2018-06-27T06:31:17.667Z,96180.00
2018-06-27T06:36:47.914Z,96176.00
2018-06-27T06:42:18.161Z,96164.00
2018-06-27T06:47:47.890Z,96158.00
2018-06-27T06:53:18.539Z,96177.00
2018-06-27T06:58:48.828Z,96171.00
2018-06-27T07:04:18.633Z,96166.00
2018-06-27T07:09:48.321Z,96173.00
2018-06-27T07:15:18.916Z,96175.00
2018-06-27T07:20:49.089Z,96174.00
2018-06-27T07:26:18.842Z,96172.00
2018-06-27T07:31:48.710Z,96176.00
2018-06-27T07:37:18.441Z,96160.00
2018-06-27T07:42:47.776Z,96162.00
2018-06-27T07:48:17.775Z,96157.00
2018-06-27T07:53:47.522Z,96156.00
2018-06-27T07:59:17.229Z,96159.00
2018-06-27T08:04:47.739Z,96158.00
2018-06-27T08:10:17.716Z,96149.00
2018-06-27T08:15:47.279Z,96152.00
2018-06-27T08:21:16.827Z,96140.00
2018-06-27T08:26:46.987Z,96144.00
2018-06-27T08:32:16.553Z,96139.00
2018-06-27T08:37:46.458Z,96142.00
2018-06-27T08:43:17.468Z,96132.00
2018-06-27T08:48:47.466Z,96130.00
2018-06-27T08:54:17.641Z,96112.00
2018-06-27T08:59:49.584Z,96106.00
2018-06-27T09:05:19.192Z,96104.00
2018-06-27T09:10:48.895Z,96095.00
2018-06-27T09:16:18.456Z,96104.00
2018-06-27T09:21:47.947Z,96105.00
2018-06-27T09:27:17.887Z,96108.00
2018-06-27T09:32:48.018Z,96097.00
2018-06-27T09:38:17.525Z,96095.00
2018-06-27T09:43:47.018Z,96109.00
2018-06-27T09:49:16.657Z,96106.00
2018-06-27T09:54:47.153Z,96091.00
2018-06-27T10:00:22.432Z,96084.00
2018-06-27T10:05:52.032Z,96078.00
2018-06-27T10:11:21.651Z,96087.00
2018-06-27T10:16:52.607Z,96082.00
2018-06-27T10:22:22.275Z,96074.00
2018-06-27T10:27:51.823Z,96076.00
2018-06-27T10:33:21.391Z,96072.00
2018-06-27T10:38:50.737Z,96068.00
2018-06-27T10:44:20.073Z,96064.00
2018-06-27T10:49:49.437Z,96073.00
2018-06-27T10:55:19.495Z,96048.00
2018-06-27T11:00:48.898Z,96057.00
2018-06-27T11:06:18.675Z,96046.00
2018-06-27T11:11:48.859Z,96042.00
2018-06-27T11:17:18.858Z,96035.00
2018-06-27T11:22:48.649Z,96032.00
2018-06-27T11:28:18.162Z,96018.00
2018-06-27T11:33:48.996Z,96022.00
2018-06-27T11:39:18.613Z,96013.00
2018-06-27T11:44:48.232Z,96012.00
2018-06-27T11:50:17.731Z,96010.00
2018-06-27T11:55:47.128Z,95999.00
2018-06-27T12:01:16.825Z,96002.00
2018-06-27T12:06:46.361Z,96011.00
2018-06-27T12:12:16.323Z,96017.00
2018-06-27T12:17:45.745Z,96017.00
2018-06-27T12:23:15.829Z,96022.00
2018-06-27T12:28:45.516Z,96022.00
2018-06-27T12:34:15.190Z,96046.00
2018-06-27T12:39:45.843Z,96045.00
2018-06-27T12:45:16.311Z,96042.00
2018-06-27T12:50:46.044Z,96052.00
2018-06-27T12:56:15.569Z,96039.00
2018-06-27T13:01:46.824Z,96035.00
2018-06-27T13:07:16.958Z,96040.00
2018-06-27T13:12:47.281Z,96032.00
2018-06-27T13:18:17.703Z,96026.00
2018-06-27T13:23:47.562Z,96020.00
2018-06-27T13:29:17.813Z,96018.00
2018-06-27T13:34:48.028Z,96017.00
2018-06-27T13:40:18.375Z,96007.00
2018-06-27T13:45:48.585Z,96008.00
2018-06-27T13:51:18.118Z,95991.00
2018-06-27T13:56:48.274Z,96006.00
2018-06-27T14:02:17.728Z,96000.00
2018-06-27T14:07:47.562Z,96001.00
2018-06-27T14:13:17.052Z,96006.00
2018-06-27T14:18:46.562Z,96017.00
2018-06-27T14:24:15.963Z,96011.00
2018-06-27T14:29:46.030Z,96006.00
2018-06-27T14:35:15.949Z,96001.00
2018-06-27T14:40:46.600Z,95998.00
2018-06-27T14:46:16.977Z,95999.00
2018-06-27T14:51:46.930Z,96004.00
2018-06-27T14:57:16.811Z,95993.00
2018-06-27T15:02:46.622Z,95993.00
2018-06-27T15:08:16.841Z,95981.00
2018-06-27T15:13:47.517Z,95999.00
2018-06-27T15:19:17.428Z,96011.00
2018-06-27T15:24:47.275Z,96017.00
2018-06-27T15:30:20.899Z,96019.00
2018-06-27T15:35:50.843Z,96023.00
2018-06-27T15:41:20.349Z,96015.00
2018-06-27T15:46:49.917Z,96022.00
2018-06-27T15:52:19.905Z,96025.00
2018-06-27T15:57:50.750Z,96014.00
2018-06-27T16:03:20.533Z,96008.00
2018-06-27T16:08:49.945Z,96004.00
2018-06-27T16:14:19.619Z,96008.00
2018-06-27T16:19:50.272Z,96010.00
2018-06-27T16:25:21.860Z,96003.00
2018-06-27T16:30:51.467Z,95996.00
2018-06-27T16:36:24.257Z,95999.00
2018-06-27T16:41:53.434Z,95995.00
2018-06-27T16:47:23.397Z,95998.00
2018-06-27T16:52:52.928Z,96009.00
2018-06-27T16:58:22.664Z,96015.00
2018-06-27T17:04:02.698Z,96016.00
2018-06-27T17:09:31.943Z,96027.00
2018-06-27T17:15:02.524Z,96029.00
2018-06-27T17:20:31.856Z,96034.00
2018-06-27T17:26:01.126Z,96032.00
2018-06-27T17:31:30.393Z,96032.00
2018-06-27T17:36:59.597Z,96035.00
2018-06-27T17:42:28.809Z,96030.00
2018-06-27T17:47:58.029Z,96042.00
2018-06-27T17:53:27.341Z,96052.00
2018-06-27T17:58:56.643Z,96057.00
2018-06-27T18:04:26.027Z,96058.00
2018-06-27T18:09:55.627Z,96067.00
2018-06-27T18:15:25.479Z,96078.00
2018-06-27T18:20:55.369Z,96078.00
2018-06-27T18:26:24.917Z,96084.00
2018-06-27T18:31:54.864Z,96083.00
2018-06-27T18:37:24.488Z,96091.00
2018-06-27T18:42:54.327Z,96099.00
2018-06-27T18:48:24.216Z,96085.00
2018-06-27T18:53:53.848Z,96096.00
2018-06-27T18:59:25.077Z,96090.00
2018-06-27T19:04:54.809Z,96096.00
2018-06-27T19:10:24.586Z,96094.00
2018-06-27T19:15:54.221Z,96109.00
2018-06-27T19:21:23.736Z,96109.00
2018-06-27T19:26:53.390Z,96118.00
2018-06-27T19:32:23.799Z,96118.00
2018-06-27T19:37:53.499Z,96116.00
2018-06-27T19:43:23.123Z,96128.00
2018-06-27T19:48:52.788Z,96133.00
2018-06-27T19:54:22.219Z,96136.00
2018-06-27T19:59:51.717Z,96139.00
2018-06-27T20:05:21.935Z,96134.00
2018-06-27T20:10:51.352Z,96131.00
2018-06-27T20:16:20.773Z,96124.00
2018-06-27T20:21:50.364Z,96131.00
2018-06-27T20:27:21.189Z,96130.00
2018-06-27T20:32:50.814Z,96141.00
2018-06-27T20:38:21.273Z,96140.00
2018-06-27T20:43:51.402Z,96141.00
2018-06-27T20:49:20.972Z,96132.00
2018-06-27T20:54:50.482Z,96132.00
2018-06-27T21:00:19.985Z,96133.00
2018-06-27T21:05:49.415Z,96125.00
2018-06-27T21:11:19.126Z,96123.00
2018-06-27T21:16:48.760Z,96129.00
2018-06-27T21:22:18.520Z,96121.00
2018-06-27T21:27:48.057Z,96127.00
2018-06-27T21:33:17.940Z,96120.00
2018-06-27T21:38:47.799Z,96129.00
2018-06-27T21:44:17.828Z,96128.00
2018-06-27T21:49:47.692Z,96121.00
2018-06-27T21:55:17.545Z,96107.00
2018-06-27T22:00:47.494Z,96109.00
2018-06-27T22:06:17.595Z,96118.00
2018-06-27T22:11:47.477Z,96116.00
2018-06-27T22:17:17.471Z,96112.00
2018-06-27T22:22:47.701Z,96109.00
2018-06-27T22:28:17.935Z,96109.00
2018-06-27T22:33:47.857Z,96113.00
2018-06-27T22:39:17.773Z,96107.00
2018-06-27T22:44:47.838Z,96098.00
2018-06-27T22:50:17.904Z,96089.00
2018-06-27T22:55:47.549Z,96086.00
2018-06-27T23:01:17.713Z,96084.00
2018-06-27T23:06:47.785Z,96079.00
2018-06-27T23:12:17.897Z,96073.00
2018-06-27T23:17:47.872Z,96073.00
2018-06-27T23:23:17.568Z,96078.00
2018-06-27T23:28:47.699Z,96078.00
2018-06-27T23:34:17.516Z,96069.00
2018-06-27T23:39:47.302Z,96059.00
2018-06-27T23:45:17.481Z,96055.00
2018-06-27T23:50:47.320Z,96054.00
2018-06-27T23:56:17.063Z,96057.00
